Time;durP1;ratioP1;P1;durP2;ratioP2;P2;SDS_P1;SDS_P2;PMS_P1;PMS_P2;Temp;Humidity;BMP_temperature;BMP_pressure;BME280_temperature;BME280_humidity;BME280_pressure;Samples;Min_cycle;Max_cycle;Signal;HPM_P1;HPM_P2
2021/01/05 00:01:50;;;;;;;25.60;15.95;;;2.50;99.90;;;;;;4896574;29;20046;-94
2021/01/05 00:04:16;;;;;;;24.65;14.75;;;2.50;99.90;;;;;;4905836;29;20037;-94
2021/01/05 00:06:46;;;;;;;26.42;16.30;;;2.60;99.90;;;;;;4911434;29;20039;-95
2021/01/05 00:09:11;;;;;;;25.52;15.85;;;2.60;99.90;;;;;;4907713;29;20036;-93
2021/01/05 00:11:55;;;;;;;23.63;14.25;;;2.50;99.90;;;;;;4876833;29;20041;-96
2021/01/05 00:14:21;;;;;;;25.00;15.25;;;2.50;99.90;;;;;;4862406;29;20033;-93
2021/01/05 00:16:47;;;;;;;22.90;14.25;;;2.50;99.90;;;;;;4944360;24;20029;-94
2021/01/05 00:19:13;;;;;;;24.50;15.43;;;2.60;99.90;;;;;;4920362;29;20146;-94
2021/01/05 00:21:39;;;;;;;23.90;14.80;;;2.60;99.90;;;;;;4903429;29;20108;-93
2021/01/05 00:24:07;;;;;;;23.90;15.07;;;2.60;99.90;;;;;;4896268;29;20044;-96
2021/01/05 00:26:37;;;;;;;23.35;16.13;;;2.50;99.90;;;;;;4891627;29;20084;-95
2021/01/05 00:29:07;;;;;;;23.83;15.02;;;2.50;99.90;;;;;;4912072;29;20120;-95
2021/01/05 00:31:33;;;;;;;23.88;15.45;;;2.50;99.90;;;;;;4893223;29;20047;-92
2021/01/05 00:34:00;;;;;;;25.95;16.02;;;2.60;99.90;;;;;;4897371;29;20029;-91
2021/01/05 00:36:26;;;;;;;27.02;15.23;;;2.50;99.90;;;;;;4892697;29;20030;-91
2021/01/05 00:38:53;;;;;;;25.30;14.88;;;2.60;99.90;;;;;;4890787;29;20021;-91
2021/01/05 00:41:19;;;;;;;24.50;14.13;;;2.60;99.90;;;;;;4901948;29;20047;-90
2021/01/05 00:43:46;;;;;;;25.95;15.60;;;2.60;99.90;;;;;;4893538;29;20021;-92
2021/01/05 00:46:13;;;;;;;24.63;15.77;;;2.60;99.90;;;;;;4897426;29;20025;-92
2021/01/05 00:48:39;;;;;;;26.30;16.65;;;2.60;99.90;;;;;;4894159;29;20064;-91
2021/01/05 00:51:06;;;;;;;25.60;15.77;;;2.60;99.90;;;;;;4889573;29;20033;-92
2021/01/05 00:53:32;;;;;;;23.95;14.43;;;2.70;99.90;;;;;;4895568;29;20032;-92
2021/01/05 00:55:58;;;;;;;25.77;15.50;;;2.50;99.90;;;;;;4896949;29;20104;-92
2021/01/05 00:58:23;;;;;;;25.05;15.50;;;2.50;99.90;;;;;;4890699;29;20144;-91
2021/01/05 01:00:54;;;;;;;26.42;16.65;;;2.50;99.90;;;;;;4893120;29;20028;-94
2021/01/05 01:03:21;;;;;;;26.52;15.45;;;2.40;99.90;;;;;;4892054;29;20076;-92
2021/01/05 01:05:47;;;;;;;22.48;14.20;;;2.50;99.90;;;;;;4921552;29;20024;-94
2021/01/05 01:08:15;;;;;;;24.85;14.52;;;2.50;99.90;;;;;;4916016;29;20335;-92
2021/01/05 01:10:41;;;;;;;22.80;13.75;;;2.60;99.90;;;;;;4907818;29;20020;-94
2021/01/05 01:13:07;;;;;;;24.23;15.10;;;2.50;99.90;;;;;;5064755;23;20056;-92
2021/01/05 01:15:33;;;;;;;24.25;14.65;;;2.50;99.90;;;;;;4914792;29;20056;-92
2021/01/05 01:18:01;;;;;;;28.42;17.27;;;2.50;99.90;;;;;;4908993;29;20020;-91
2021/01/05 01:20:29;;;;;;;27.63;15.05;;;2.50;99.90;;;;;;4922625;29;20545;-91
2021/01/05 01:22:54;;;;;;;27.52;15.38;;;2.60;99.90;;;;;;4921940;29;20112;-92
2021/01/05 01:25:20;;;;;;;25.55;14.77;;;2.60;99.90;;;;;;4906106;29;20012;-93
2021/01/05 01:27:46;;;;;;;24.17;15.15;;;2.50;99.90;;;;;;5064720;23;20044;-92
2021/01/05 01:30:15;;;;;;;23.90;14.55;;;2.50;99.90;;;;;;4906595;29;20033;-94
2021/01/05 01:32:43;;;;;;;25.17;15.05;;;2.50;99.90;;;;;;4922612;29;20135;-92
2021/01/05 01:44:05;;;;;;;24.42;14.40;;;2.40;99.90;;;;;;4903707;29;20072;-83
2021/01/05 01:46:34;;;;;;;26.88;15.15;;;2.30;99.90;;;;;;4904154;29;20009;-90
2021/01/05 01:49:01;;;;;;;26.98;16.38;;;2.40;99.90;;;;;;4887164;29;20017;-93
2021/01/05 01:51:48;;;;;;;32.03;17.30;;;2.40;99.90;;;;;;5037781;23;20037;-92
2021/01/05 01:54:45;;;;;;;28.02;17.13;;;2.40;99.90;;;;;;4979933;23;20037;-94
2021/01/05 01:57:33;;;;;;;30.33;17.17;;;2.50;99.90;;;;;;4927488;29;20055;-94
2021/01/05 02:03:06;;;;;;;23.92;14.30;;;2.40;99.90;;;;;;5346251;23;20041;-92
2021/01/05 02:06:14;;;;;;;25.17;16.40;;;2.40;99.90;;;;;;4833944;29;20067;-95
2021/01/05 02:14:42;;;;;;;22.30;13.70;;;2.50;99.90;;;;;;4963340;23;20040;-92
2021/01/05 02:17:23;;;;;;;25.58;13.90;;;2.50;99.90;;;;;;4818523;29;20030;-94
2021/01/05 02:20:16;;;;;;;24.73;14.43;;;2.40;99.90;;;;;;4830442;29;20022;-92
2021/01/05 02:22:54;;;;;;;26.67;15.18;;;2.40;99.90;;;;;;4829171;29;20383;-93
2021/01/05 02:25:50;;;;;;;22.58;13.93;;;2.40;99.90;;;;;;4829505;29;20019;-93
2021/01/05 02:28:19;;;;;;;24.55;16.08;;;2.40;99.90;;;;;;4829030;29;20031;-93
2021/01/05 02:30:52;;;;;;;23.25;14.63;;;2.50;99.90;;;;;;4828356;29;20118;-93
2021/01/05 02:33:24;;;;;;;23.10;14.10;;;2.50;99.90;;;;;;4827853;29;20030;-92
2021/01/05 02:36:49;;;;;;;23.48;15.07;;;2.60;99.90;;;;;;4819447;29;20038;-93
2021/01/05 02:39:31;;;;;;;25.95;14.80;;;2.60;99.90;;;;;;4809494;29;20096;-92
2021/01/05 02:42:05;;;;;;;;;;;2.50;99.90;;;;;;4820939;29;20031;-92
2021/01/05 02:45:01;;;;;;;27.05;15.40;;;2.40;99.90;;;;;;4830774;29;19901;-92
2021/01/05 02:47:45;;;;;;;27.50;15.65;;;2.50;99.90;;;;;;4862115;29;20032;-92
2021/01/05 02:50:35;;;;;;;27.65;16.55;;;2.50;99.90;;;;;;4902701;29;20021;-92
2021/01/05 02:53:19;;;;;;;28.55;15.82;;;2.40;99.90;;;;;;4902630;29;20127;-92
2021/01/05 02:56:22;;;;;;;26.98;16.15;;;2.40;99.90;;;;;;4886548;29;20049;-93
2021/01/05 02:59:05;;;;;;;27.77;16.45;;;2.40;99.90;;;;;;4909448;29;20020;-92
2021/01/05 03:01:49;;;;;;;30.73;17.95;;;2.40;99.90;;;;;;4922078;29;20045;-92
2021/01/05 03:04:15;;;;;;;24.67;14.65;;;2.40;99.90;;;;;;4913492;29;20020;-92
2021/01/05 03:06:47;;;;;;;27.38;16.08;;;2.40;99.90;;;;;;4923080;29;20092;-92
2021/01/05 03:09:50;;;;;;;25.20;14.82;;;2.40;99.90;;;;;;4914292;29;20044;-92
2021/01/05 03:12:45;;;;;;;28.00;16.15;;;2.40;99.90;;;;;;4882540;29;20093;-93
2021/01/05 03:15:13;;;;;;;24.10;14.43;;;2.40;99.90;;;;;;4871152;29;20048;-92
2021/01/05 03:17:57;;;;;;;27.38;16.10;;;2.40;99.90;;;;;;4889398;29;20034;-93
2021/01/05 03:20:30;;;;;;;25.80;15.23;;;2.40;99.90;;;;;;4860619;29;20017;-93
2021/01/05 03:23:13;;;;;;;26.88;14.80;;;2.40;99.90;;;;;;4881600;29;20093;-93
2021/01/05 03:25:44;;;;;;;26.95;16.30;;;2.40;99.90;;;;;;4878899;29;20017;-91
2021/01/05 03:28:13;;;;;;;26.88;17.08;;;2.40;99.90;;;;;;4877610;29;20113;-93
2021/01/05 03:30:44;;;;;;;26.52;15.00;;;2.40;99.90;;;;;;4878057;29;20048;-91
2021/01/05 03:33:12;;;;;;;26.45;14.85;;;2.50;99.90;;;;;;4873329;29;20045;-94
2021/01/05 03:35:38;;;;;;;25.42;14.60;;;2.50;99.90;;;;;;4870193;29;20021;-94
2021/01/05 03:38:04;;;;;;;26.45;15.05;;;2.50;99.90;;;;;;4868014;29;20447;-95
2021/01/05 03:40:30;;;;;;;29.08;17.95;;;2.50;99.90;;;;;;4866885;29;20057;-93
2021/01/05 03:42:55;;;;;;;23.27;15.23;;;2.50;99.90;;;;;;4889998;29;20048;-93
2021/01/05 03:45:29;;;;;;;27.55;14.93;;;2.50;99.90;;;;;;4902673;29;20053;-92
2021/01/05 03:47:55;;;;;;;29.08;16.00;;;2.50;99.90;;;;;;4872842;29;20040;-92
2021/01/05 03:50:22;;;;;;;24.92;15.20;;;2.50;99.90;;;;;;4908439;29;20016;-91
2021/01/05 03:52:47;;;;;;;28.23;16.33;;;2.50;99.90;;;;;;4921291;29;20035;-92
2021/01/05 03:55:15;;;;;;;24.60;14.18;;;2.50;99.90;;;;;;4939587;29;20411;-92
2021/01/05 03:57:41;;;;;;;27.88;15.93;;;2.60;99.90;;;;;;4923104;29;20128;-93
2021/01/05 04:00:13;;;;;;;25.42;15.00;;;2.50;99.90;;;;;;4922867;29;20036;-90
2021/01/05 04:02:39;;;;;;;25.98;14.13;;;2.50;99.90;;;;;;4928686;29;20068;-91
2021/01/05 04:05:05;;;;;;;27.20;15.93;;;2.50;99.90;;;;;;4916771;29;20027;-91
2021/01/05 04:07:31;;;;;;;24.90;15.38;;;2.50;99.90;;;;;;4906182;29;20013;-91
2021/01/05 04:09:57;;;;;;;27.58;15.32;;;2.50;99.90;;;;;;4919966;29;20032;-90
2021/01/05 04:12:23;;;;;;;26.83;14.98;;;2.60;99.90;;;;;;4882765;29;20057;-91
2021/01/05 04:14:49;;;;;;;27.10;14.20;;;2.60;99.90;;;;;;4866134;29;20088;-93
2021/01/05 04:17:15;;;;;;;23.20;14.38;;;2.50;99.90;;;;;;4867939;29;20117;-92
2021/01/05 04:19:40;;;;;;;27.90;16.08;;;2.40;99.90;;;;;;4885328;29;20032;-91
2021/01/05 04:22:09;;;;;;;25.08;14.43;;;2.60;99.90;;;;;;4879800;29;20041;-93
2021/01/05 04:24:35;;;;;;;28.05;16.27;;;2.50;99.90;;;;;;4884722;29;20029;-92
2021/01/05 04:27:06;;;;;;;27.60;15.80;;;2.50;99.90;;;;;;4881278;29;20070;-91
2021/01/05 04:29:32;;;;;;;27.48;15.82;;;2.50;99.90;;;;;;4879199;29;20022;-92
2021/01/05 04:32:00;;;;;;;26.15;13.55;;;2.60;99.90;;;;;;4851398;29;20090;-91
2021/01/05 04:34:26;;;;;;;26.73;15.65;;;2.60;99.90;;;;;;4833087;29;20042;-91
2021/01/05 04:36:52;;;;;;;25.20;14.38;;;2.50;99.90;;;;;;4835933;29;20079;-91
2021/01/05 04:39:17;;;;;;;26.13;14.75;;;2.50;99.90;;;;;;4851220;29;20034;-92
2021/01/05 04:42:01;;;;;;;25.23;14.65;;;2.50;99.90;;;;;;4841498;29;20053;-91
2021/01/05 04:44:42;;;;;;;28.50;14.80;;;2.50;99.90;;;;;;4857786;29;20133;-92
2021/01/05 04:47:45;;;;;;;27.27;15.03;;;2.50;99.90;;;;;;4855449;29;20034;-89
2021/01/05 04:50:14;;;;;;;29.77;14.77;;;2.60;99.90;;;;;;4839028;29;20042;-91
2021/01/05 04:53:02;;;;;;;24.40;13.82;;;2.60;99.90;;;;;;4839584;29;20353;-91
2021/01/05 04:55:58;;;;;;;23.17;13.73;;;2.50;99.90;;;;;;4839561;29;20044;-91
2021/01/05 04:58:54;;;;;;;25.85;14.32;;;2.50;99.90;;;;;;4853267;29;20159;-92
2021/01/05 05:01:33;;;;;;;26.67;15.20;;;2.60;99.90;;;;;;4830622;29;20042;-92
2021/01/05 05:04:36;;;;;;;27.52;15.23;;;2.50;99.90;;;;;;4861852;29;20037;-92
2021/01/05 05:07:28;;;;;;;23.95;14.02;;;2.50;99.90;;;;;;4844653;29;20067;-91
2021/01/05 05:10:03;;;;;;;28.58;14.93;;;2.50;99.90;;;;;;4845866;29;20030;-93
2021/01/05 05:12:56;;;;;;;25.75;15.05;;;2.50;99.90;;;;;;4850682;29;20045;-92
2021/01/05 05:15:34;;;;;;;28.05;14.35;;;2.50;99.90;;;;;;4861280;29;20054;-92
2021/01/05 05:18:49;;;;;;;28.05;14.93;;;2.60;99.90;;;;;;4849882;29;20036;-90
2021/01/05 05:21:33;;;;;;;25.58;14.23;;;2.50;99.90;;;;;;4826389;29;20133;-91
2021/01/05 05:24:20;;;;;;;25.40;15.52;;;2.50;99.90;;;;;;4812800;29;20477;-90
2021/01/05 05:27:23;;;;;;;29.35;15.18;;;2.50;99.90;;;;;;4837724;29;20101;-92
2021/01/05 05:29:56;;;;;;;28.27;14.95;;;2.50;99.90;;;;;;4844444;29;20019;-92
2021/01/05 05:32:40;;;;;;;28.25;15.15;;;2.50;99.90;;;;;;4841488;29;20054;-95
2021/01/05 05:35:42;;;;;;;28.05;14.73;;;2.60;99.90;;;;;;4823021;29;20058;-92
2021/01/05 05:38:24;;;;;;;26.48;15.32;;;2.50;99.90;;;;;;4836895;29;20038;-92
2021/01/05 05:41:16;;;;;;;27.38;15.95;;;2.60;99.90;;;;;;4832600;29;20030;-93
2021/01/05 05:44:19;;;;;;;27.13;14.48;;;2.60;99.90;;;;;;4831083;29;20039;-91
2021/01/05 05:46:54;;;;;;;25.13;14.48;;;2.70;99.90;;;;;;4824547;29;20043;-92
2021/01/05 05:49:44;;;;;;;27.05;15.68;;;2.60;99.90;;;;;;4820615;29;20034;-91
2021/01/05 05:52:26;;;;;;;28.95;15.13;;;2.70;99.90;;;;;;4830790;29;20050;-91
2021/01/05 05:54:54;;;;;;;25.40;13.70;;;2.70;99.90;;;;;;4845149;29;20093;-90
2021/01/05 05:57:44;;;;;;;28.65;15.50;;;2.70;99.90;;;;;;4874847;29;20044;-91
2021/01/05 06:00:48;;;;;;;28.98;16.60;;;2.70;99.90;;;;;;4910625;29;20096;-93
2021/01/05 06:03:22;;;;;;;26.50;15.55;;;2.70;99.90;;;;;;4889176;29;20033;-90
2021/01/05 06:05:47;;;;;;;28.10;14.90;;;2.60;99.90;;;;;;4932871;29;20021;-91
2021/01/05 06:08:16;;;;;;;26.25;14.23;;;2.70;99.90;;;;;;4905708;29;20031;-90
2021/01/05 06:10:42;;;;;;;35.25;17.40;;;2.70;99.90;;;;;;4904805;29;20037;-90
2021/01/05 06:13:08;;;;;;;27.27;15.95;;;2.70;99.90;;;;;;4899992;29;20044;-91
2021/01/05 06:15:34;;;;;;;27.25;15.23;;;2.80;99.90;;;;;;4921444;29;20036;-90
2021/01/05 06:18:07;;;;;;;28.70;16.38;;;2.80;99.90;;;;;;4920727;29;20032;-93
2021/01/05 06:20:34;;;;;;;29.42;16.73;;;2.70;99.90;;;;;;4920634;29;20066;-92
2021/01/05 06:23:00;;;;;;;30.23;16.23;;;2.70;99.90;;;;;;4909517;29;20024;-92
2021/01/05 06:25:26;;;;;;;24.50;14.52;;;2.70;99.90;;;;;;4890034;29;20025;-91
2021/01/05 06:27:53;;;;;;;28.75;15.65;;;2.80;99.90;;;;;;4915676;29;20036;-92
2021/01/05 06:30:19;;;;;;;25.65;14.50;;;2.80;99.90;;;;;;4905453;29;20040;-92
2021/01/05 06:32:46;;;;;;;28.52;16.23;;;2.70;99.90;;;;;;4910683;29;20032;-92
2021/01/05 06:35:15;;;;;;;28.25;15.85;;;2.80;99.90;;;;;;4895876;29;20059;-92
2021/01/05 06:37:41;;;;;;;29.70;15.73;;;2.70;99.90;;;;;;4908601;29;20049;-92
2021/01/05 06:40:09;;;;;;;28.38;15.60;;;2.80;99.90;;;;;;4895979;29;20095;-93
2021/01/05 06:42:35;;;;;;;31.10;15.85;;;2.80;99.90;;;;;;4910150;29;20044;-94
2021/01/05 06:45:04;;;;;;;32.15;17.23;;;2.70;99.90;;;;;;4899849;29;20112;-93
2021/01/05 06:47:30;;;;;;;37.63;17.73;;;2.80;99.90;;;;;;4900890;29;20032;-92
2021/01/05 06:49:55;;;;;;;27.25;15.80;;;2.80;99.90;;;;;;4889606;29;20054;-91
2021/01/05 06:52:22;;;;;;;31.48;16.45;;;2.80;99.90;;;;;;4888512;29;20043;-91
2021/01/05 06:54:48;;;;;;;35.40;18.13;;;2.80;99.90;;;;;;4868518;29;20045;-91
2021/01/05 06:57:14;;;;;;;36.42;18.73;;;2.80;99.90;;;;;;4876087;29;20048;-92
2021/01/05 06:59:42;;;;;;;35.85;19.95;;;2.80;99.90;;;;;;4874249;29;20030;-93
2021/01/05 07:02:10;;;;;;;33.83;19.10;;;2.80;99.90;;;;;;4848140;29;20061;-92
2021/01/05 07:04:37;;;;;;;29.92;17.17;;;2.70;99.90;;;;;;4847933;29;20046;-91
2021/01/05 07:07:03;;;;;;;32.58;17.23;;;2.70;99.90;;;;;;4854743;29;20125;-92
2021/01/05 07:09:31;;;;;;;30.50;16.67;;;2.80;99.90;;;;;;4860278;29;20041;-93
2021/01/05 07:11:57;;;;;;;30.92;16.73;;;2.80;99.90;;;;;;4850957;29;20132;-93
2021/01/05 07:14:26;;;;;;;30.67;17.15;;;2.80;99.90;;;;;;4864862;29;20049;-95
2021/01/05 07:16:52;;;;;;;33.10;17.60;;;2.80;99.90;;;;;;4857606;29;20063;-93
2021/01/05 07:19:18;;;;;;;30.85;17.15;;;2.80;99.90;;;;;;4864893;29;20029;-93
2021/01/05 07:21:45;;;;;;;29.27;15.73;;;2.80;99.90;;;;;;4863906;29;20125;-92
2021/01/05 07:24:13;;;;;;;31.00;16.88;;;2.80;99.90;;;;;;4863833;29;20033;-91
2021/01/05 07:26:51;;;;;;;29.90;17.35;;;2.80;99.90;;;;;;4886010;29;20092;-94
2021/01/05 07:29:28;;;;;;;40.63;17.50;;;2.90;99.90;;;;;;4904201;29;20025;-92
2021/01/05 07:31:56;;;;;;;31.27;16.40;;;3.00;99.90;;;;;;4903780;29;20048;-94
2021/01/05 07:34:26;;;;;;;32.22;17.10;;;2.90;99.90;;;;;;4878900;29;20032;-94
2021/01/05 07:36:58;;;;;;;26.83;15.95;;;3.10;99.90;;;;;;4903995;29;20009;-94
2021/01/05 07:39:29;;;;;;;30.90;16.23;;;2.90;99.90;;;;;;4920926;29;20009;-94
2021/01/05 07:42:21;;;;;;;29.60;16.88;;;2.90;99.90;;;;;;4917488;29;20057;-95
2021/01/05 07:44:51;;;;;;;28.52;15.73;;;2.90;99.90;;;;;;4897478;29;20029;-95
2021/01/05 07:47:18;;;;;;;27.55;16.20;;;2.90;99.90;;;;;;4892535;29;20378;-94
2021/01/05 07:49:46;;;;;;;31.33;17.52;;;2.90;99.90;;;;;;4919910;29;20041;-94
2021/01/05 07:52:36;;;;;;;29.58;17.20;;;2.90;99.90;;;;;;4884375;29;20062;-95
2021/01/05 07:55:20;;;;;;;25.57;14.87;;;2.90;99.90;;;;;;4879358;29;20053;-93
2021/01/05 07:57:48;;;;;;;31.15;15.15;;;3.00;99.90;;;;;;4884767;29;20041;-94
2021/01/05 08:00:19;;;;;;;29.33;15.13;;;3.00;99.90;;;;;;4878355;29;20033;-94
2021/01/05 08:02:45;;;;;;;;;;;3.00;99.90;;;;;;4853280;29;20067;-93
2021/01/05 08:05:19;;;;;;;27.65;15.48;;;3.00;99.90;;;;;;4858095;29;19908;-95
2021/01/05 08:07:46;;;;;;;28.95;14.80;;;3.00;99.90;;;;;;4863938;29;20069;-95
2021/01/05 08:10:32;;;;;;;30.58;16.63;;;3.00;99.90;;;;;;4865743;29;20038;-93
2021/01/05 08:13:01;;;;;;;26.77;14.55;;;3.20;99.90;;;;;;4865983;29;20049;-89
2021/01/05 08:15:30;;;;;;;27.45;15.95;;;3.10;99.90;;;;;;4861253;29;20130;-92
2021/01/05 08:17:58;;;;;;;24.58;14.95;;;3.10;99.90;;;;;;4871141;29;20053;-92
2021/01/05 08:20:27;;;;;;;27.80;16.58;;;3.10;99.90;;;;;;4871797;29;20033;-93
2021/01/05 08:22:57;;;;;;;32.85;17.63;;;3.30;99.90;;;;;;4878032;29;20037;-93
2021/01/05 08:25:23;;;;;;;29.75;15.65;;;3.20;99.90;;;;;;4896287;29;20029;-93
2021/01/05 08:27:51;;;;;;;29.15;14.77;;;3.20;99.90;;;;;;4905841;29;20747;-92
2021/01/05 08:30:27;;;;;;;30.63;16.00;;;3.20;99.90;;;;;;4909597;29;20039;-94
2021/01/05 08:32:54;;;;;;;27.70;16.08;;;3.10;99.90;;;;;;4886684;29;20037;-90
2021/01/05 08:35:23;;;;;;;27.67;15.90;;;3.20;99.90;;;;;;4916261;29;20016;-91
2021/01/05 08:37:53;;;;;;;25.95;14.48;;;3.40;99.90;;;;;;4904068;29;20406;-92
2021/01/05 08:40:25;;;;;;;32.55;15.88;;;3.30;99.90;;;;;;4894676;29;20036;-94
2021/01/05 08:42:53;;;;;;;28.30;17.00;;;3.20;99.90;;;;;;4882600;29;20020;-96
2021/01/05 08:45:19;;;;;;;26.95;15.18;;;3.30;99.90;;;;;;4910953;29;20024;-94
2021/01/05 08:47:47;;;;;;;30.08;15.98;;;3.30;99.90;;;;;;4879747;29;20588;-94
2021/01/05 08:50:30;;;;;;;28.25;15.55;;;3.30;99.90;;;;;;4900715;29;20056;-95
2021/01/05 08:53:05;;;;;;;27.30;16.88;;;3.30;99.90;;;;;;4907561;29;20575;-95
2021/01/05 08:55:52;;;;;;;26.98;15.75;;;3.40;99.90;;;;;;4877934;29;20119;-91
2021/01/05 08:58:19;;;;;;;32.35;15.77;;;3.40;99.90;;;;;;4878052;29;20398;-93
2021/01/05 09:00:44;;;;;;;30.58;16.75;;;3.30;99.90;;;;;;4895532;29;20043;-91
2021/01/05 09:03:10;;;;;;;27.33;15.65;;;3.50;99.90;;;;;;4893416;29;20032;-92
2021/01/05 09:05:36;;;;;;;27.92;15.13;;;3.50;99.90;;;;;;4914955;29;20024;-91
2021/01/05 09:08:03;;;;;;;31.65;15.45;;;3.50;99.90;;;;;;4898447;29;20033;-93
2021/01/05 09:10:30;;;;;;;27.35;14.27;;;3.40;99.90;;;;;;4907803;29;20340;-95
2021/01/05 09:12:56;;;;;;;26.25;14.73;;;3.50;99.90;;;;;;4908398;29;20029;-93
2021/01/05 09:15:32;;;;;;;26.52;15.35;;;3.40;99.90;;;;;;4873569;29;20064;-94
2021/01/05 09:18:02;;;;;;;31.52;15.43;;;3.40;99.90;;;;;;4865595;29;20036;-93
2021/01/05 09:20:31;;;;;;;27.88;13.70;;;3.50;99.90;;;;;;4880738;29;20037;-92
2021/01/05 09:22:57;;;;;;;25.77;13.13;;;3.40;99.90;;;;;;4869581;29;20079;-95
2021/01/05 09:25:26;;;;;;;25.27;13.82;;;3.40;99.90;;;;;;4855344;29;20339;-93
2021/01/05 09:28:06;;;;;;;23.38;14.30;;;3.50;99.90;;;;;;4850687;29;20093;-95
2021/01/05 09:30:35;;;;;;;24.45;14.77;;;3.50;99.90;;;;;;4870644;29;20101;-91
2021/01/05 09:33:01;;;;;;;26.98;14.80;;;3.50;99.90;;;;;;4859630;29;20034;-93
2021/01/05 09:35:26;;;;;;;28.02;16.23;;;3.60;99.90;;;;;;4866008;29;20136;-92
2021/01/05 09:37:55;;;;;;;27.25;13.77;;;3.70;99.90;;;;;;4851886;29;20026;-93
2021/01/05 09:40:20;;;;;;;20.52;12.60;;;3.60;99.90;;;;;;4882630;29;20089;-93
2021/01/05 09:42:49;;;;;;;28.40;14.50;;;3.60;99.90;;;;;;4881507;29;20031;-94
2021/01/05 09:45:16;;;;;;;28.98;15.43;;;3.60;99.90;;;;;;5137626;23;20055;-92
2021/01/05 09:47:42;;;;;;;26.23;14.27;;;3.60;99.90;;;;;;4927366;29;20124;-90
2021/01/05 09:50:08;;;;;;;25.83;14.27;;;3.60;99.90;;;;;;4899743;29;20124;-92
2021/01/05 09:52:35;;;;;;;30.30;15.70;;;3.50;99.90;;;;;;4914297;29;20093;-94
2021/01/05 09:55:05;;;;;;;25.23;14.82;;;3.60;99.90;;;;;;4908589;29;20029;-92
2021/01/05 09:57:33;;;;;;;29.65;15.07;;;3.50;99.90;;;;;;4911240;23;20016;-92
2021/01/05 09:59:59;;;;;;;30.58;16.55;;;3.70;99.90;;;;;;4839919;29;20046;-90
2021/01/05 10:02:24;;;;;;;31.30;16.70;;;3.70;99.90;;;;;;4853880;29;20041;-79
2021/01/05 10:04:50;;;;;;;26.35;14.82;;;3.60;99.90;;;;;;4870575;29;20086;-89
2021/01/05 10:07:18;;;;;;;27.23;15.95;;;3.60;99.90;;;;;;4870022;29;20045;-90
2021/01/05 10:09:44;;;;;;;27.85;14.70;;;3.70;99.90;;;;;;4883171;29;20038;-90
2021/01/05 10:12:10;;;;;;;31.98;17.25;;;3.70;99.90;;;;;;4883568;29;20062;-89
2021/01/05 10:14:36;;;;;;;25.95;14.75;;;3.80;99.90;;;;;;4851789;29;20025;-91
2021/01/05 10:17:02;;;;;;;29.92;15.80;;;3.80;99.90;;;;;;4883965;29;20037;-91
2021/01/05 10:19:32;;;;;;;24.63;14.25;;;3.90;99.90;;;;;;4878510;29;20075;-92
2021/01/05 10:22:00;;;;;;;28.75;14.68;;;3.80;99.90;;;;;;4864162;29;20044;-90
2021/01/05 10:24:27;;;;;;;29.83;16.17;;;3.80;99.90;;;;;;4864594;29;20041;-91
2021/01/05 10:26:55;;;;;;;31.98;16.63;;;3.70;99.90;;;;;;4927090;23;20041;-90
2021/01/05 10:29:22;;;;;;;29.25;15.60;;;3.80;99.90;;;;;;4921956;29;20024;-90
2021/01/05 10:31:48;;;;;;;30.52;15.73;;;3.80;99.90;;;;;;4889685;29;20033;-91
2021/01/05 10:34:18;;;;;;;28.40;16.10;;;3.90;99.90;;;;;;4903877;29;20024;-90
2021/01/05 10:36:52;;;;;;;32.80;17.73;;;3.70;99.90;;;;;;4915976;29;20028;-91
2021/01/05 10:39:20;;;;;;;28.65;16.60;;;3.70;99.90;;;;;;4920629;29;20040;-90
2021/01/05 10:41:49;;;;;;;29.90;15.43;;;3.70;99.90;;;;;;4905441;29;20028;-90
2021/01/05 10:44:16;;;;;;;30.10;15.20;;;3.70;99.90;;;;;;4921766;29;20187;-88
2021/01/05 10:46:46;;;;;;;33.53;17.15;;;3.70;99.90;;;;;;4905936;29;20020;-89
2021/01/05 10:49:13;;;;;;;30.58;15.73;;;3.70;99.90;;;;;;4921877;29;20030;-91
2021/01/05 10:51:50;;;;;;;32.95;17.70;;;3.80;99.90;;;;;;4927595;29;20047;-90
2021/01/05 10:54:21;;;;;;;30.83;15.68;;;3.80;99.90;;;;;;4902931;29;20021;-89
2021/01/05 10:57:15;;;;;;;30.95;16.85;;;3.80;99.90;;;;;;4929929;29;20024;-90
2021/01/05 10:59:42;;;;;;;31.38;17.42;;;3.90;99.90;;;;;;4936936;29;20012;-91
2021/01/05 11:02:09;;;;;;;31.80;16.98;;;3.90;99.90;;;;;;4914629;29;20020;-91
2021/01/05 11:04:38;;;;;;;30.50;15.23;;;4.00;99.90;;;;;;4923499;29;20032;-91
2021/01/05 11:07:12;;;;;;;32.95;18.52;;;3.80;99.90;;;;;;4919207;29;20164;-90
2021/01/05 11:09:38;;;;;;;29.20;16.15;;;3.80;99.90;;;;;;4881230;29;20033;-90
2021/01/05 11:12:25;;;;;;;30.50;15.52;;;3.70;99.90;;;;;;4905698;29;20044;-91
2021/01/05 11:14:54;;;;;;;31.17;17.08;;;3.80;99.90;;;;;;4915379;29;20359;-89
2021/01/05 11:17:22;;;;;;;33.67;17.30;;;4.00;99.90;;;;;;4876707;29;20053;-90
2021/01/05 11:19:48;;;;;;;27.88;16.50;;;4.10;99.90;;;;;;4895833;29;20088;-94
2021/01/05 11:22:19;;;;;;;26.85;15.48;;;4.00;99.90;;;;;;4893449;29;20096;-92
2021/01/05 11:24:46;;;;;;;30.90;15.48;;;4.00;99.90;;;;;;4890799;29;20029;-91
2021/01/05 11:27:15;;;;;;;30.92;17.67;;;3.90;99.90;;;;;;4909566;29;20057;-91
2021/01/05 11:29:43;;;;;;;32.17;16.55;;;4.00;99.90;;;;;;4913443;29;20044;-92
2021/01/05 11:32:31;;;;;;;29.60;15.95;;;4.00;99.90;;;;;;4903565;29;20114;-90
2021/01/05 11:35:03;;;;;;;27.80;16.73;;;3.90;99.90;;;;;;4917166;29;20032;-91
2021/01/05 11:37:33;;;;;;;31.35;16.98;;;3.90;99.90;;;;;;4904967;29;20016;-89
2021/01/05 11:40:09;;;;;;;31.10;16.38;;;3.80;99.90;;;;;;4894000;29;20050;-90
2021/01/05 11:42:35;;;;;;;30.65;16.70;;;3.90;99.90;;;;;;4892563;29;20128;-90
2021/01/05 11:45:02;;;;;;;32.25;17.67;;;3.80;99.90;;;;;;4894598;29;20028;-88
2021/01/05 11:47:30;;;;;;;31.20;17.20;;;3.70;99.90;;;;;;4910220;29;20080;-90
2021/01/05 11:49:56;;;;;;;32.20;17.80;;;3.80;99.90;;;;;;4876303;29;20044;-89
2021/01/05 11:52:25;;;;;;;33.00;16.60;;;3.70;99.90;;;;;;4904991;29;20079;-90
2021/01/05 11:54:56;;;;;;;29.48;16.45;;;3.70;99.90;;;;;;4908109;29;20027;-91
2021/01/05 11:57:23;;;;;;;36.83;18.58;;;3.60;99.90;;;;;;4891063;29;20025;-89
2021/01/05 12:00:22;;;;;;;31.75;16.75;;;3.70;99.90;;;;;;4914703;29;20433;-86
2021/01/05 12:02:48;;;;;;;30.13;17.73;;;3.60;99.90;;;;;;4886783;29;20173;-89
2021/01/05 12:05:18;;;;;;;32.20;16.40;;;3.50;99.90;;;;;;4889960;29;20060;-88
2021/01/05 12:07:44;;;;;;;33.95;16.58;;;3.60;99.90;;;;;;4907077;29;20032;-89
2021/01/05 12:10:11;;;;;;;38.75;18.75;;;3.60;99.90;;;;;;4913126;29;20013;-90
2021/01/05 12:12:37;;;;;;;36.95;19.45;;;3.60;99.90;;;;;;4905214;29;20050;-89
2021/01/05 12:15:05;;;;;;;36.88;18.35;;;3.70;99.90;;;;;;4901529;29;20028;-87
2021/01/05 12:17:45;;;;;;;35.67;17.58;;;3.70;99.90;;;;;;4911086;29;20060;-90
2021/01/05 12:20:14;;;;;;;33.13;17.23;;;3.70;99.90;;;;;;4919454;29;20033;-91
2021/01/05 12:22:44;;;;;;;34.38;17.90;;;3.60;99.90;;;;;;4905325;29;20024;-91
2021/01/05 12:25:28;;;;;;;37.40;18.05;;;3.60;99.90;;;;;;4891968;29;20473;-91
2021/01/05 12:27:55;;;;;;;50.85;21.27;;;3.60;99.90;;;;;;4904239;29;20116;-91
2021/01/05 12:30:24;;;;;;;37.03;17.85;;;3.70;99.90;;;;;;4904278;29;20033;-91
2021/01/05 12:32:52;;;;;;;37.30;19.35;;;3.60;99.90;;;;;;4897717;29;20366;-93
2021/01/05 12:35:17;;;;;;;29.52;16.95;;;3.70;99.90;;;;;;4911873;29;20028;-94
2021/01/05 12:37:43;;;;;;;30.98;15.93;;;3.70;99.90;;;;;;4916316;29;20080;-92
2021/01/05 12:40:14;;;;;;;30.23;17.05;;;3.80;99.90;;;;;;4880532;29;20104;-92
2021/01/05 12:42:41;;;;;;;29.40;16.20;;;3.60;99.90;;;;;;4917467;29;20028;-91
2021/01/05 12:45:10;;;;;;;31.00;17.23;;;3.70;99.90;;;;;;4893206;29;20323;-92
2021/01/05 12:47:36;;;;;;;32.28;17.02;;;3.80;99.90;;;;;;4874584;29;20037;-92
2021/01/05 12:50:07;;;;;;;37.05;17.40;;;3.70;99.90;;;;;;4868708;29;20074;-93
2021/01/05 12:52:35;;;;;;;31.58;16.80;;;3.70;99.90;;;;;;4853881;29;20049;-93
2021/01/05 12:55:02;;;;;;;28.45;17.13;;;3.60;99.90;;;;;;4872775;29;20085;-93
2021/01/05 12:57:29;;;;;;;32.78;17.63;;;3.60;99.90;;;;;;4868802;29;20033;-91
2021/01/05 12:59:57;;;;;;;37.72;19.08;;;3.60;99.90;;;;;;4860067;29;20266;-93
2021/01/05 13:02:29;;;;;;;37.38;18.05;;;3.60;99.90;;;;;;4870959;29;20046;-93
2021/01/05 13:04:55;;;;;;;35.80;19.58;;;3.60;99.90;;;;;;4877561;29;20093;-93
2021/01/05 13:07:23;;;;;;;34.78;18.98;;;3.60;99.90;;;;;;4858791;29;20080;-95
2021/01/05 13:09:54;;;;;;;33.00;17.05;;;3.80;99.90;;;;;;4877777;29;20042;-91
2021/01/05 13:12:23;;;;;;;30.60;17.13;;;3.70;99.90;;;;;;4880959;29;20435;-90
2021/01/05 13:15:38;;;;;;;33.20;17.50;;;3.60;99.90;;;;;;4838324;29;20029;-92
2021/01/05 13:18:04;;;;;;;32.20;17.60;;;3.60;99.90;;;;;;4894445;29;20033;-92
2021/01/05 13:20:34;;;;;;;36.15;18.25;;;3.60;99.90;;;;;;4899002;29;20010;-94
2021/01/05 13:23:02;;;;;;;32.90;18.38;;;3.60;99.90;;;;;;4898937;29;20085;-93